• Join FlightAware (Why Join?)
  • Login
  • US Flag 
08:52AM EDT


 

Airport Tracker/Info


-or-


 

Live Flight TrackerFlight Track Log ✈ VH-VQB ✈ 24-Apr-2013 ✈ YPAD / ADL - YPPH / PER

Flight Track Log - Related Links

Times and Time Zones

All times are in EDT time to prevent confusion due to time zone crossing. See the VH-VQB flight status page for this flight to view local times or setup timezone preferences in your user account.

Time Position Orientation Groundspeed Altitude Reporting Facility
EDT Latitude Longitude Course Direction KTS MPH feet Rate Location/Type
09:25PM -35.0051 138.4523 285° West 6,400  Level Aus ATC (Calculated)
09:26PM -34.9788 138.1238 264° West  Level FlightAware Approximate
09:27PM -35.0054 138.1819 270° West  Level FlightAware Approximate
09:27PM -35.0123 138.3265 73° East 10,000  Level Aus ATC (Calculated)
09:29PM -35.0008 138.0678 265° West  Level Estimated
09:29PM -34.9797 138.1209 94° East 13,400  Level Aus ATC (Calculated)
09:31PM -34.9946 137.9309 264° West  Level FlightAware Approximate
09:31PM -34.9936 138.4002 264° West 264 304 3,600  Level Aus ATC (RADAR)
09:32PM -35.0052 138.2556 264° West 306 352 7,900 2,580 Climbing Aus ATC (RADAR)
09:34PM -35.0186 138.0679 265° West 361 415 11,400 2,820 Climbing Aus ATC (RADAR)
09:35PM -35.0319 137.8707 265° West 342 394 16,900 3,240 Climbing Aus ATC (RADAR)
09:36PM -35.0346 137.8318 265° West 344 396 17,800 12,000 Climbing Aus ATC (RADAR)
09:36PM -35.0780 137.1390 265° West 390 449 27,300 2,100 Climbing FlightAware
09:37PM -35.0422 137.7141 265° West 348 400 20,000 1,200 Descending Aus ATC (RADAR)
09:37PM -35.0830 137.0530 266° West 395 455 28,100 2,100 Climbing FlightAware
09:38PM -35.0497 137.5936 266° West 358 412 22,000 1,080 Descending Aus ATC (RADAR)
09:38PM -35.0920 136.8940 266° West 405 466 29,400 2,040 Climbing FlightAware
09:38PM -35.0554 137.5019 266° West 361 415 23,500 840 Descending Aus ATC (RADAR)
09:38PM -35.0970 136.8140 266° West 412 474 29,900 6,900 Climbing FlightAware
09:39PM -35.1040 136.6980 266° West 417 480 30,800 -3,240 Climbing FlightAware
09:40PM -35.0638 137.3688 266° West 368 423 25,200 960 Descending Aus ATC (RADAR)
09:40PM -35.1110 136.5680 266° West 421 484 31,700 7,860 Climbing FlightAware
09:41PM -35.1160 136.4710 266° West 418 481 32,700 1,020 Climbing FlightAware
09:42PM -35.1220 136.3690 266° West 424 488 33,200 -3,600 Climbing FlightAware
09:42PM -35.0816 137.0770 266° West 391 450 28,100 -4,260 Descending Aus ATC (RADAR)
09:43PM -35.0870 136.9879 266° West 396 456 29,100 1,200 Climbing Aus ATC (RADAR)
09:43PM -35.0894 136.9432 266° West 396 456 29,400 7,260 Climbing Aus ATC (RADAR)
09:43PM -35.1350 136.1100 266° West 412 474 35,400 1,020 Climbing FlightAware
09:44PM -35.0959 136.8289 266° West 408 470 30,100 -4,200 Descending Aus ATC (RADAR)
09:44PM -35.1060 136.6650 266° West 417 480 31,300 4,560 Climbing Aus ATC (RADAR)
09:45PM -35.1480 135.8500 266° West 417 480 36,700 3,540 Climbing FlightAware
09:46PM -35.1530 135.7500 266° West 412 474 37,000 180 Climbing FlightAware
09:47PM -35.1580 135.6500 266° West 415 478 37,000 -960 Level FlightAware
09:47PM -35.1354 136.0993 266° West 410 472 35,700  Descending Aus ATC (RADAR)
09:48PM -35.1630 135.5380 266° West 425 489 37,000 1,380 Climbing FlightAware
09:48PM -35.1690 135.4100 267° West 431 496 37,000 60 Level FlightAware
09:49PM -35.1730 135.3150 267° West 432 497 37,100 240 Climbing FlightAware
09:49PM -35.1541 135.7126 267° West 413 475 37,300 -180 Climbing Aus ATC (RADAR)
09:50PM -35.1780 135.2070 267° West 430 495 37,000 -300 Descending FlightAware
09:50PM -35.1820 135.1110 267° West 417 480 37,000  Level FlightAware
09:51PM -35.1860 135.0150 267° West 417 480 37,000 300 Level FlightAware
09:51PM -35.1643 135.5001 267° West 425 489 37,300  Climbing Aus ATC (RADAR)
09:52PM -35.1910 134.9100 267° West 415 478 37,000 -300 Descending FlightAware
09:53PM -35.1970 134.8160 266° West 413 475 37,000  Level FlightAware
09:53PM -35.2010 134.7240 267° West 410 472 37,000  Level FlightAware
09:54PM -35.2060 134.6240 266° West 410 472 37,000  Level FlightAware
09:55PM -35.2090 134.5720 266° West 413 475 37,000 300 Level FlightAware
09:55PM -35.1891 134.9858 266° West 418 481 37,300  Climbing Aus ATC (RADAR)
09:55PM -35.2150 134.4420 266° West 416 479 37,000 -300 Descending FlightAware
09:56PM -35.2190 134.3620 266° West 416 479 37,000 180 Level FlightAware
09:56PM -35.2092 134.6147 266° West 411 473 37,200  Climbing Aus ATC (RADAR)
09:57PM -35.2220 134.2820 266° West 416 479 37,000 60 Descending FlightAware
09:57PM -35.2161 134.4494 266° West 420 483 37,300  Climbing Aus ATC (RADAR)
09:57PM -35.2260 134.1820 266° West 416 479 37,000  Descending FlightAware
09:58PM -35.2182 134.3646 266° West 429 494 37,300  Climbing Aus ATC (RADAR)
09:58PM -35.2300 134.1020 266° West 416 479 37,000 -360 Descending FlightAware
09:59PM -35.2330 134.0220 267° West 416 479 37,000 300 Level FlightAware
09:59PM -35.2256 134.1709 267° West 430 495 37,300  Climbing Aus ATC (RADAR)
09:59PM -35.2370 133.9420 267° West 416 479 37,000 -300 Descending FlightAware
10:00PM -35.2400 133.8620 267° West 416 479 37,000 240 Level FlightAware
10:01PM -35.2341 134.0123 267° West 435 501 37,300  Climbing Aus ATC (RADAR)
10:01PM -35.2440 133.7620 267° West 416 479 37,000 -360 Descending FlightAware
10:02PM -35.2480 133.6820 266° West 416 479 37,000  Level FlightAware
10:02PM -35.2510 133.6020 267° West 416 479 37,000  Level FlightAware
10:03PM -35.2540 133.5220 267° West 416 479 37,000  Level FlightAware
10:04PM -35.2509 133.6486 267° West 423 487 37,000  Level Aus ATC (RADAR)
10:04PM -35.2580 133.4420 267° West 416 479 37,000  Level FlightAware
10:04PM -35.2517 133.6122 267° West 425 489 37,000  Level Aus ATC (RADAR)
10:04PM -35.2620 133.3420 267° West 416 479 37,000  Level FlightAware
10:07PM -35.2327 133.0672 277° West  Level FlightAware Approximate
10:07PM -35.2055 133.0832 277° West 37,000  Level Aus ATC (Calculated)
10:09PM -35.1855 132.8617 276° West  Level FlightAware Approximate
10:10PM -35.1732 132.7274 276° West  Level FlightAware Approximate
10:11PM -35.1607 132.5933 276° West  Level FlightAware Approximate
10:12PM -35.1481 132.4591 277° West  Level FlightAware Approximate
10:12PM -35.1224 132.1919 278° West 37,000  Level Aus ATC (Calculated)
10:14PM -35.1007 131.9695 277° West  Level FlightAware Approximate
10:15PM -35.0873 131.8348 277° West  Level FlightAware Approximate
10:15PM -35.0533 131.5000 278° West 37,000  Level Aus ATC (Calculated)
10:16PM -35.0737 131.7002 277° West  Level FlightAware Approximate
10:17PM -34.9145 131.5000 North  Level FlightAware Approximate
10:17PM -35.0310 131.2803 279° West 37,000  Level Aus ATC (Calculated)
10:19PM -35.0520 131.4867 97° East  Level FlightAware Approximate
10:20PM -35.0478 131.4457 277° West  Level FlightAware Approximate
10:20PM -34.9882 130.8687 279° West 37,000  Level Aus ATC (Calculated)
10:21PM -35.0342 131.3111 277° West  Level FlightAware Approximate
10:22PM -34.9691 130.6895 277° West  Level FlightAware Approximate
10:23PM -34.9547 130.5551 277° West  Level FlightAware Approximate
10:24PM -34.9400 130.4209 278° West  Level FlightAware Approximate
10:25PM -34.9253 130.2866 278° West  Level FlightAware Approximate
10:25PM -34.9100 130.1494 279° West 37,000  Level Aus ATC (Calculated)
10:26PM -34.9103 130.1524 278° West  Level FlightAware Approximate
10:27PM -34.8899 129.9705 278° West  Level FlightAware Approximate
10:27PM -34.8872 129.9473 280° West 37,000  Level Aus ATC (Calculated)
10:29PM -34.8629 129.7351 278° West  Level FlightAware Approximate
10:30PM -34.8474 129.6011 278° West  Level FlightAware Approximate
10:31PM -34.8317 129.4672 278° West  Level FlightAware Approximate
10:32PM -34.8159 129.3333 278° West  Level FlightAware Approximate
10:32PM -34.8019 129.2158 280° West 37,000  Level Aus ATC (Calculated)
10:34PM -34.7747 128.9906 278° West  Level FlightAware Approximate
10:35PM -34.7584 128.8569 278° West  Level FlightAware Approximate
10:36PM -34.7419 128.7233 279° West  Level FlightAware Approximate
10:37PM -34.7253 128.5897 279° West  Level FlightAware Approximate
10:37PM -34.7179 128.5314 281° West 37,000  Level Aus ATC (Calculated)
10:37PM -34.7095 128.4649 281° West 37,000  Level Aus ATC (Calculated)
10:39PM -34.6898 128.3092 279° West  Level FlightAware Approximate
10:40PM -34.6727 128.1758 279° West  Level FlightAware Approximate
10:40PM -34.6650 128.1162 281° West 37,000  Level Aus ATC (Calculated)
10:42PM -34.6356 127.8895 279° West  Level FlightAware Approximate
10:43PM -34.6530 128.0228 99° East  Level FlightAware Approximate
10:44PM -34.6356 127.8895 279° West  Level FlightAware Approximate
10:45PM -34.6530 128.0228 99° East  Level FlightAware Approximate
10:45PM -34.5753 127.4352 282° West 37,000  Level Aus ATC (Calculated)
10:47PM -34.6067 127.6704 99° East  Level FlightAware Approximate
10:48PM -34.5836 127.5385 279° West  Level Estimated
10:49PM -34.5660 127.4053 279° West  Level FlightAware Approximate
10:50PM -34.5483 127.2722 279° West  Level FlightAware Approximate
10:50PM -34.4849 126.7776 282° West 37,000  Level Aus ATC (Calculated)
10:51PM -34.5304 127.1392 279° West  Level FlightAware Approximate
10:52PM -34.4514 126.5409 280° West  Level FlightAware Approximate
10:53PM -34.4324 126.4082 280° West  Level FlightAware Approximate
10:54PM -34.4133 126.2756 280° West  Level FlightAware Approximate
10:55PM -34.3941 126.1431 280° West  Level FlightAware Approximate
10:55PM -34.3772 126.0278 283° West 37,000  Level Aus ATC (Calculated)
10:56PM -34.3746 126.0106 280° West  Level FlightAware Approximate
10:57PM -34.3419 125.7895 280° West  Level FlightAware Approximate
10:58PM -34.3222 125.6572 280° West  Level FlightAware Approximate
10:59PM -34.3022 125.5249 280° West  Level FlightAware Approximate
10:59PM -34.2934 125.4667 283° West 37,000  Level Aus ATC (Calculated)
11:01PM -34.2686 125.3037 280° West  Level FlightAware Approximate
11:01PM -34.2650 125.2799 284° West 37,000  Level Aus ATC (Calculated)
11:01PM -34.2506 125.1866 284° West 37,000  Level Aus ATC (Calculated)
11:03PM -34.2237 125.0128 281° West  Level FlightAware Approximate
11:03PM -34.2060 124.9001 284° West 37,000  Level Aus ATC (Calculated)
11:04PM -34.2031 124.8808 281° West  Level FlightAware Approximate
11:05PM -34.2315 125.0629 101° East  Level FlightAware Approximate
11:05PM -34.1585 124.6008 284° West 37,000  Level Aus ATC (Calculated)
11:06PM -34.2109 124.9309 281° West  Level FlightAware Approximate
11:07PM -34.1844 124.7634 101° East  Level FlightAware Approximate
11:07PM -34.1265 124.4015 285° West 37,000  Level Aus ATC (Calculated)
11:08PM -34.0941 124.2022 285° West 37,000  Level Aus ATC (Calculated)
11:09PM -34.1604 124.6122 101° East  Level FlightAware Approximate
11:09PM -34.0778 124.1027 285° West 37,000  Level Aus ATC (Calculated)
11:10PM -34.0507 124.0081 281° West  Level Estimated
11:10PM -34.0449 123.9037 285° West 37,000  Level Aus ATC (Calculated)
11:11PM -34.0499 123.9335 281° West  Level FlightAware Approximate
11:12PM -34.0218 123.7646 281° West  Level FlightAware Approximate
11:12PM -34.0117 123.7049 285° West 37,000  Level Aus ATC (Calculated)
11:13PM -34.0002 123.6363 281° West  Level FlightAware Approximate
11:14PM -33.9728 123.4740 281° West  Level FlightAware Approximate
11:15PM -33.9509 123.3458 282° West  Level FlightAware Approximate
11:15PM -33.9274 123.2085 286° West 37,000  Level Aus ATC (Calculated)
11:16PM -33.9290 123.2178 282° West  Level FlightAware Approximate
11:17PM -33.9069 123.0897 282° West  Level FlightAware Approximate
11:18PM -33.8782 122.9248 282° West  Level FlightAware Approximate
11:19PM -33.8558 122.7969 282° West  Level FlightAware Approximate
11:20PM -33.8333 122.6691 282° West  Level FlightAware Approximate
11:20PM -33.8059 122.5151 288° West 37,000  Level Aus ATC (Calculated)
11:21PM -33.8106 122.5414 282° West  Level FlightAware Approximate
11:22PM -33.7755 122.3449 282° West  Level FlightAware Approximate
11:23PM -33.7525 122.2174 282° West  Level FlightAware Approximate
11:24PM -33.7293 122.0899 282° West  Level FlightAware Approximate
11:25PM -33.7061 121.9624 282° West  Level FlightAware Approximate
11:25PM -33.6806 121.8238 290° West 37,000  Level Aus ATC (Calculated)
11:27PM -33.5522 121.8238 North  Level FlightAware Approximate
11:28PM -33.6607 121.8238 180° South  Level FlightAware Approximate
11:29PM -33.7692 121.8238 180° South  Level FlightAware Approximate
11:30PM -33.6607 121.8238 North  Level FlightAware Approximate
11:30PM -33.4907 121.1862 290° West 37,000  Level Aus ATC (Calculated)
11:31PM -33.7692 121.8238 180° South  Level FlightAware Approximate
11:32PM -33.4503 121.0378 289° West  Level Estimated
11:32PM -33.4266 120.9743 290° West 37,000  Level Aus ATC (Calculated)
11:33PM -33.4129 120.9157 290° West  Level FlightAware Approximate
11:33PM -33.3838 120.8332 290° West 37,000  Level Aus ATC (Calculated)
11:35PM -33.3253 120.6421 290° West  Level FlightAware Approximate
11:35PM -33.2975 120.5515 290° West 37,000  Level Aus ATC (Calculated)
11:36PM -33.2541 120.4108 290° West 37,000 60 Level Aus ATC (Calculated)
11:37PM -33.2338 120.3450 290° West  Level FlightAware Approximate
11:38PM -33.1940 120.2169 290° West  Level FlightAware Approximate
11:39PM -33.1555 120.0933 290° West  Level FlightAware Approximate
11:39PM -33.1450 120.0597 291° West 37,000  Level Aus ATC (Calculated)
11:40PM -33.1011 119.9195 291° West 37,000 120 Level Aus ATC (Calculated)
11:41PM -33.0349 119.7094 291° West 37,000 180 Level Aus ATC (Calculated)
11:42PM -33.0363 119.7140 291° West  Level FlightAware Approximate
11:43PM -32.9842 119.5494 291° West  Level FlightAware Approximate
11:44PM -33.0232 119.6725 111° Southeast  Level FlightAware Approximate
11:44PM -32.9331 119.3891 110° East 26,900  Level Aus ATC (Calculated)
11:45PM -32.9490 119.4400 291° West 376 433 38,000 8,640 Climbing FlightAware
11:45PM -33.0428 119.7448 111° Southeast 375 432 38,300 480 Climbing Aus ATC (RADAR)
11:46PM -33.0301 119.7061 291° West 372 428 38,300 -420 Level Aus ATC (RADAR)
11:46PM -32.9150 119.3310 290° West 375 432 38,000 -180 Descending FlightAware
11:47PM -32.8590 119.1560 291° West 373 429 38,000  Level FlightAware
11:48PM -32.8350 119.0840 292° West 372 428 38,000 240 Level FlightAware
11:49PM -32.9328 119.3970 292° West 367 422 38,300  Climbing Aus ATC (RADAR)
11:49PM -32.8070 118.9950 292° West 370 426 38,000 -360 Descending FlightAware
11:49PM -32.7800 118.9120 291° West 370 426 38,000  Level FlightAware
11:50PM -32.7530 118.8290 291° West 368 423 38,000  Level FlightAware
11:51PM -32.7310 118.7620 291° West 368 423 38,000  Level FlightAware
11:52PM -32.7040 118.6790 291° West 368 423 38,000 120 Level FlightAware
11:52PM -32.8068 119.0045 291° West 365 420 38,200  Climbing Aus ATC (RADAR)
11:52PM -32.6750 118.5910 291° West 369 425 38,000 -240 Descending FlightAware
11:53PM -32.6480 118.5070 291° West 369 425 38,000 120 Level FlightAware
11:54PM -32.7304 118.7685 291° West 362 417 38,200  Climbing Aus ATC (RADAR)
11:54PM -32.6230 118.4310 291° West 369 425 38,000 -300 Descending FlightAware
11:54PM -32.5980 118.3570 292° West 367 422 38,000 180 Level FlightAware
11:55PM -32.6887 118.6361 292° West 360 414 38,200  Climbing Aus ATC (RADAR)
11:55PM -32.5700 118.2710 292° West 371 427 38,000 -240 Descending FlightAware
11:56PM -32.5440 118.1950 292° West 367 422 38,000 -720 Level FlightAware
11:56PM -32.5190 118.1190 291° West 361 415 37,100 120 Descending FlightAware
11:57PM -32.6117 118.4011 291° West 361 415 38,200 -1,740 Climbing Aus ATC (RADAR)
11:57PM -32.4920 118.0370 291° West 353 406 35,800 -4,380 Descending FlightAware
11:58PM -32.4680 117.9650 292° West 351 404 34,500 -1,800 Descending FlightAware
11:59PM -32.4440 117.8940 292° West 347 399 33,400 -1,740 Descending FlightAware
11:59PM -32.4180 117.8170 292° West 339 390 32,100 -1,800 Descending FlightAware
12:00AM -32.3950 117.7480 292° West 337 388 30,900 -1,500 Descending FlightAware
12:01AM -32.3700 117.6720 291° West 322 371 30,000 3,600 Descending FlightAware
12:01AM -32.4635 117.9579 291° West 339 390 34,600 7,620 Climbing Aus ATC (RADAR)
12:01AM -32.4547 117.9310 291° West 338 389 34,200 -14,040 Descending Aus ATC (RADAR)
12:01AM -32.3520 117.6040 291° West 316 364 29,000 -1,560 Descending FlightAware
12:02AM -32.4341 117.8695 291° West 335 386 33,100 -1,500 Climbing Aus ATC (RADAR)
12:02AM -32.3360 117.5390 291° West 314 361 28,000 -1,680 Descending FlightAware
12:03AM -32.4079 117.7913 291° West 330 380 31,900 -1,500 Climbing Aus ATC (RADAR)
12:03AM -32.3180 117.4640 291° West 308 354 26,900 -2,040 Descending FlightAware
12:03AM -32.3854 117.7222 291° West 327 376 30,700 -1,380 Climbing Aus ATC (RADAR)
12:03AM -32.3030 117.4010 291° West 302 348 26,000 -6,240 Descending FlightAware
12:04AM -32.2860 117.3300 286° West 292 336 25,100 -1,320 Descending FlightAware
12:05AM -32.2730 117.2770 286° West 290 334 24,300 3,360 Descending FlightAware
12:05AM -32.3317 117.5234 286° West 303 349 27,900 -1,320 Climbing Aus ATC (RADAR)
12:06AM -32.2550 117.2010 286° West 286 329 23,200 -1,320 Descending FlightAware
12:06AM -32.3104 117.4338 286° West 297 342 26,700 -1,500 Climbing Aus ATC (RADAR)
12:06AM -32.2400 117.1420 286° West 283 326 22,200 -5,640 Descending FlightAware
12:07AM -32.2250 117.0820 286° West 282 325 21,300 2,220 Descending FlightAware
12:07AM -32.2779 117.3020 286° West 280 322 24,800 -1,200 Climbing Aus ATC (RADAR)
12:08AM -32.2100 117.0190 286° West 275 316 20,400 -5,520 Descending FlightAware
12:08AM -32.1960 116.9610 286° West 266 306 19,700 -1,140 Descending FlightAware
12:09AM -32.1820 116.9050 286° West 264 304 18,900 2,460 Descending FlightAware
12:09AM -32.2348 117.1214 286° West 272 313 22,100 -2,580 Climbing Aus ATC (RADAR)
12:10AM -32.1730 116.8370 286° West 294 338 17,000 -6,000 Descending FlightAware
12:10AM -32.1640 116.7710 279° West 312 359 15,400 3,240 Descending FlightAware
12:11AM -32.2040 116.9973 279° West 266 306 20,300 -1,500 Climbing Aus ATC (RADAR)
12:11AM -32.1550 116.6970 279° West 305 351 14,300 -6,660 Descending FlightAware
12:12AM -32.1470 116.6310 278° West 303 349 13,200 -1,200 Descending FlightAware
12:13AM -32.1520 116.5590 265° West 280 322 12,600 2,940 Descending FlightAware
12:13AM -32.1721 116.8325 265° West 268 308 17,000 -1,380 Climbing Aus ATC (RADAR)
12:13AM -32.1570 116.5010 265° West 282 325 11,700 -7,920 Descending FlightAware
12:14AM -32.1630 116.4370 264° West 282 325 10,700 -1,440 Descending FlightAware
12:15AM -32.1690 116.3690 264° West 279 321 9,700 -1,380 Descending FlightAware
12:15AM -32.1720 116.3310 265° West 275 316 9,100 -1,320 Descending FlightAware
12:16AM -32.1760 116.2870 264° West 273 314 8,500 -1,020 Descending FlightAware
12:16AM -32.1800 116.2430 264° West 260 299 8,100 -780 Descending FlightAware
12:17AM -32.1830 116.2090 264° West 249 287 7,800 -1,020 Descending FlightAware
12:17AM -32.1860 116.1690 265° West 246 283 7,200 -1,200 Descending FlightAware
12:17AM -32.1900 116.1350 262° West 244 281 6,700 -900 Descending FlightAware
12:18AM -32.1930 116.0960 265° West 233 268 6,400 -780 Descending FlightAware
12:18AM -32.1980 116.0670 258° West 232 267 6,000 -960 Descending FlightAware
12:19AM -32.2040 116.0420 254° West 227 261 5,700 -840 Descending FlightAware
12:19AM -32.2100 116.0130 256° West 220 253 5,400 -1,020 Descending FlightAware
12:20AM -32.2170 115.9780 257° West 218 251 4,800 -1,020 Descending FlightAware
12:20AM -32.2230 115.9480 257° West 208 239 4,500 -900 Descending FlightAware
12:21AM -32.2140 115.9190 290° West 194 223 4,000 -900 Descending FlightAware
12:21AM -32.2070 115.9140 329° Northwest 190 219 3,900 -480 Descending FlightAware
12:21AM -32.1930 115.9120 353° North 187 215 3,800 -540 Descending FlightAware
12:21AM -32.1670 115.9110 358° North 191 220 3,500 -540 Descending FlightAware
12:22AM -32.1530 115.9110 360° North 191 220 3,400 -360 Descending FlightAware
12:22AM -32.1400 115.9110 360° North 180 207 3,300 -480 Descending FlightAware
12:22AM -32.1230 115.9120 North 171 197 3,100 -720 Descending FlightAware
12:23AM -32.1000 115.9190 14° North 161 185 2,700 -900 Descending FlightAware
12:23AM -32.0830 115.9240 14° North 159 183 2,300 1,620 Descending FlightAware
12:24AM -32.1995 115.9113 14° North 191 220 4,000 -840 Climbing Aus ATC (RADAR)
12:24AM -32.0610 115.9300 14° North 166 191 1,900 -4,500 Descending FlightAware
12:24AM -32.0460 115.9340 13° North 154 177 1,600 -780 Descending FlightAware
12:25AM -32.0240 115.9410 15° North 136 157 1,200 -720 Descending FlightAware
12:25AM -32.0170 115.9430 14° North 133 153 1,100 3,120 Descending FlightAware
12:25AM -32.1150 115.9145 14° North 172 198 3,100 -720 Climbing Aus ATC (RADAR)
12:25AM -32.0000 115.9480 14° North 135 155 800 -4,800 Descending FlightAware
12:26AM -31.9800 115.9540 14° North 133 153 400 -840 Descending FlightAware
12:26AM -31.9630 115.9590 14° North 135 155 -840 Descending FlightAware